Flight Track Log - Related Links

Times and Time Zones

All times are in EDT time to prevent confusion due to time zone crossing. See the PDT4226 flight status page for this flight to view local times or setup timezone preferences in your user account.

Time Position Orientation Groundspeed Altitude Reporting Facility
EDT Latitude Longitude Course Direction KTS MPH feet Rate Location/Type
Tue 02:05:00 PM 41.9713 -75.9021 180° South  Level Estimated
Tue 02:06:00 PM 41.9106 -75.9107 186° South  Level FlightAware Approximate
Tue 02:07:00 PM 41.8515 -75.8906 160° South  Level Estimated
Tue 02:08:00 PM 41.7907 -75.8839 175° South  Level FlightAware Approximate
Tue 02:09:00 PM 41.7316 -75.8635 159° South  Level Estimated
Tue 02:10:00 PM 41.6718 -75.8471 168° South  Level FlightAware Approximate
Tue 02:11:00 PM 41.6128 -75.8267 153° Southeast  Level Estimated
Tue 02:12:00 PM 41.5537 -75.8063 161° South  Level Estimated
Tue 02:13:00 PM 41.4957 -75.7813 162° South  Level FlightAware Approximate
Tue 02:14:00 PM 41.4376 -75.7564 162° South  Level FlightAware Approximate
Tue 02:15:00 PM 41.3784 -75.7364 162° South  Level Estimated
Tue 02:16:00 PM 41.3206 -75.7104 161° South  Level FlightAware Approximate
Tue 02:17:00 PM 41.2629 -75.6844 161° South  Level FlightAware Approximate
Tue 02:18:00 PM 41.2051 -75.6584 161° South  Level FlightAware Approximate
Tue 02:19:00 PM 41.1473 -75.6325 161° South  Level FlightAware Approximate
Tue 02:20:00 PM 41.0879 -75.6139 163° South  Level Estimated
Tue 02:21:00 PM 41.0300 -75.5882 161° South  Level FlightAware Approximate
Tue 02:22:00 PM 40.9722 -75.5626 162° South  Level FlightAware Approximate
Tue 02:23:00 PM 40.9143 -75.5370 162° South  Level FlightAware Approximate
Tue 02:24:00 PM 40.8564 -75.5115 162° South  Level FlightAware Approximate
Tue 02:25:00 PM 40.7968 -75.4948 190° South  Level Estimated
Tue 02:26:00 PM 40.7358 -75.4959 181° South  Level FlightAware Approximate
Tue 02:27:00 PM 40.6748 -75.4970 181° South  Level FlightAware Approximate
Tue 02:28:00 PM 40.6155 -75.4778 187° South  Level Estimated
Tue 02:29:00 PM 40.5551 -75.4887 188° South  Level FlightAware Approximate
Tue 02:30:00 PM 40.4963 -75.4672 190° South  Level Estimated
Tue 02:31:00 PM 40.4250 -75.4912 194° South  Level FlightAware Approximate
Tue 02:31:15 PM 40.5333 -75.6167 180° South 250 288 6,000  Level Philadelphia TRACON
Tue 02:31:39 PM 40.5167 -75.6167 180° South 241 277 6,000 -615 Level Philadelphia TRACON
Tue 02:32:00 PM 40.3555 -75.4595 180° South  Level Estimated
Tue 02:32:33 PM 40.4500 -75.6000 169° South 239 275 5,200  Level Philadelphia TRACON
Tue 02:33:00 PM 40.2860 -75.4279 143° Southeast  Level Estimated
Tue 02:33:34 PM 40.3833 -75.5833 169° South 241 277 5,000  Level Philadelphia TRACON
Tue 02:34:00 PM 40.2165 -75.3963 143° Southeast  Level Estimated
Tue 02:34:34 PM 40.3333 -75.5500 153° Southeast 222 255 5,000  Level Philadelphia TRACON
Tue 02:35:00 PM 40.1603 -75.3708 143° Southeast  Level Estimated
Tue 02:35:34 PM 40.2833 -75.5000 143° Southeast 221 254 4,900  Level Philadelphia TRACON
Tue 02:36:00 PM 40.1040 -75.3453 180° South  Level Estimated
Tue 02:36:34 PM 40.2333 -75.4667 153° Southeast 239 275 4,200  Level Philadelphia TRACON
Tue 02:37:39 PM 40.1667 -75.4333 159° South 199 229 4,000 -95 Descending Philadelphia TRACON
Tue 02:38:40 PM 40.1000 -75.4167 169° South 212 244 4,000  Level Philadelphia TRACON
Tue 02:39:40 PM 40.0500 -75.4000 166° South 210 242 4,000  Level Philadelphia TRACON
Tue 02:40:34 PM 40.0000 -75.3833 166° South 209 241 4,000  Level Philadelphia TRACON
Tue 02:41:34 PM 39.9500 -75.3667 166° South 210 242 4,000  Level Philadelphia TRACON
Tue 02:42:34 PM 39.8833 -75.3500 169° South 208 239 4,000 -400 Level Philadelphia TRACON
Tue 02:43:34 PM 39.8333 -75.3167 153° Southeast 206 237 3,200 -500 Descending Philadelphia TRACON
Tue 02:44:34 PM 39.7833 -75.3000 166° South 202 232 3,000 -95 Descending Philadelphia TRACON
Tue 02:45:40 PM 39.7167 -75.2833 169° South 203 234 3,000 -198 Level Philadelphia TRACON
Tue 02:46:35 PM 39.6833 -75.2333 131° Southeast 197 227 2,600 -470 Descending Philadelphia TRACON
Tue 02:47:35 PM 39.7167 -75.1833 49° Northeast 193 222 2,100 -550 Descending Philadelphia TRACON
Tue 02:48:35 PM 39.7667 -75.1667 14° North 195 224 1,500 -550 Descending Philadelphia TRACON
Tue 02:49:35 PM 39.8167 -75.2000 333° Northwest 188 216 1,000 -500 Descending Philadelphia TRACON
Tue 02:50:35 PM 39.8500 -75.2167 339° North 136 157 500 -500 Descending Philadelphia TRACON

Login

Don't have an account? Register now (free) for customized features, flight alerts, and more!